createdAt,value
2023-01-10T00:00:42.627Z,71.59
2023-01-10T00:03:11.476Z,71.48
2023-01-10T00:05:40.574Z,71.92
2023-01-10T00:08:08.674Z,71.89
2023-01-10T00:10:35.831Z,71.79
2023-01-10T00:13:21.041Z,72.22
2023-01-10T00:15:48.232Z,72.38
2023-01-10T00:18:14.970Z,71.79
2023-01-10T00:20:41.541Z,72.13
2023-01-10T00:23:08.024Z,71.24
2023-01-10T00:25:36.045Z,71.50
2023-01-10T00:28:10.772Z,71.41
2023-01-10T00:30:40.770Z,71.78
2023-01-10T00:33:08.970Z,72.12
2023-01-10T00:35:35.911Z,72.89
2023-01-10T00:38:05.746Z,72.44
2023-01-10T00:40:33.522Z,72.27
2023-01-10T00:43:19.372Z,72.46
2023-01-10T00:45:47.549Z,71.45
2023-01-10T00:48:15.103Z,71.64
2023-01-10T00:50:42.297Z,71.74
2023-01-10T00:53:09.060Z,71.32
2023-01-10T00:55:36.571Z,71.17
2023-01-10T00:58:03.730Z,71.36
2023-01-10T01:00:30.468Z,71.59
2023-01-10T01:02:56.971Z,71.40
2023-01-10T01:05:23.597Z,71.67
2023-01-10T01:07:51.963Z,71.51
2023-01-10T01:10:28.587Z,71.44
2023-01-10T01:12:57.679Z,71.54
2023-01-10T01:15:26.277Z,72.00
2023-01-10T01:17:53.272Z,71.69
2023-01-10T01:20:21.153Z,71.38
2023-01-10T01:22:48.380Z,71.01
2023-01-10T01:25:14.858Z,70.82
2023-01-10T01:27:41.411Z,70.93
2023-01-10T01:30:10.879Z,70.79
2023-01-10T01:32:38.027Z,71.05
2023-01-10T01:35:08.377Z,71.79
2023-01-10T01:37:34.942Z,72.33
2023-01-10T01:40:01.476Z,72.58
2023-01-10T01:42:33.001Z,72.09
2023-01-10T01:45:22.375Z,71.95
2023-01-10T01:48:00.545Z,72.43
2023-01-10T01:51:08.888Z,72.45
2023-01-10T01:53:59.054Z,72.65
2023-01-10T01:56:39.547Z,72.06
2023-01-10T01:59:29.127Z,71.65
2023-01-10T02:02:04.350Z,71.56
2023-01-10T02:04:45.258Z,71.47
2023-01-10T02:07:13.725Z,71.27
2023-01-10T02:09:58.234Z,70.91
2023-01-10T02:12:29.233Z,71.01
2023-01-10T02:14:56.872Z,70.63
2023-01-10T02:17:23.323Z,71.10
2023-01-10T02:19:59.063Z,70.63
2023-01-10T02:23:05.787Z,71.26
2023-01-10T02:25:50.322Z,71.50
2023-01-10T02:28:22.854Z,70.85
2023-01-10T02:31:50.338Z,70.29
2023-01-10T02:34:32.983Z,70.49
2023-01-10T02:37:16.173Z,70.39
2023-01-10T02:40:07.270Z,70.96
2023-01-10T02:42:54.970Z,70.86
2023-01-10T02:45:40.736Z,70.86
2023-01-10T02:48:07.868Z,70.62
2023-01-10T02:50:43.172Z,70.33
2023-01-10T02:53:18.512Z,70.75
2023-01-10T02:56:39.077Z,70.58
2023-01-10T02:59:51.507Z,71.02
2023-01-10T03:02:48.961Z,70.99
2023-01-10T03:05:37.715Z,71.00
2023-01-10T03:08:35.808Z,71.12
2023-01-10T03:11:07.007Z,71.48
2023-01-10T03:13:57.856Z,71.13
2023-01-10T03:16:32.223Z,70.94
2023-01-10T03:19:04.385Z,71.20
2023-01-10T03:21:34.018Z,70.74
2023-01-10T03:24:15.999Z,70.91
2023-01-10T03:26:52.541Z,70.78
2023-01-10T03:29:28.846Z,70.50
2023-01-10T03:32:03.182Z,70.50
2023-01-10T03:34:31.255Z,70.61
2023-01-10T03:37:44.173Z,70.70
2023-01-10T03:40:36.927Z,70.61
2023-01-10T03:43:35.564Z,70.76
2023-01-10T03:46:12.368Z,70.66
2023-01-10T03:48:45.901Z,70.50
2023-01-10T03:51:14.149Z,70.77
2023-01-10T03:53:40.597Z,70.60
2023-01-10T03:56:07.685Z,70.83
2023-01-10T03:58:34.344Z,70.88
2023-01-10T04:01:00.934Z,70.15
2023-01-10T04:03:27.459Z,70.01
2023-01-10T04:05:53.941Z,70.48
2023-01-10T04:08:20.430Z,69.92
2023-01-10T04:10:49.841Z,69.97
2023-01-10T04:13:16.346Z,69.83
2023-01-10T04:15:42.947Z,69.23
2023-01-10T04:18:09.425Z,69.36
2023-01-10T04:20:35.852Z,70.21
2023-01-10T04:23:02.489Z,70.44
2023-01-10T04:25:28.974Z,70.49
2023-01-10T04:27:55.456Z,70.41
2023-01-10T04:30:21.945Z,69.95
2023-01-10T04:32:48.441Z,69.87
2023-01-10T04:35:15.051Z,69.57
2023-01-10T04:37:41.934Z,69.76
2023-01-10T04:40:09.413Z,69.73
2023-01-10T04:42:35.921Z,69.74
2023-01-10T04:45:02.847Z,69.20
2023-01-10T04:47:29.326Z,69.52
2023-01-10T04:49:55.835Z,69.18
2023-01-10T04:52:22.487Z,69.33
2023-01-10T04:54:48.993Z,69.28
2023-01-10T04:57:15.523Z,69.81
2023-01-10T04:59:41.991Z,69.21
2023-01-10T05:02:08.536Z,69.41
2023-01-10T05:04:35.126Z,69.15
2023-01-10T05:07:01.591Z,69.17
2023-01-10T05:09:28.021Z,69.29
2023-01-10T05:11:55.008Z,68.78
2023-01-10T05:14:21.873Z,69.06
2023-01-10T05:16:48.364Z,68.99
2023-01-10T05:19:14.883Z,69.06
2023-01-10T05:21:41.431Z,69.48
2023-01-10T05:24:09.446Z,69.05
2023-01-10T05:26:35.902Z,69.06
2023-01-10T05:29:02.414Z,69.24
2023-01-10T05:31:28.905Z,69.21
2023-01-10T05:33:55.409Z,69.16
2023-01-10T05:36:22.002Z,69.66
2023-01-10T05:38:48.539Z,69.84
2023-01-10T05:41:15.064Z,69.95
2023-01-10T05:43:41.803Z,69.72
2023-01-10T05:46:09.241Z,69.70
2023-01-10T05:48:35.800Z,69.81
2023-01-10T05:51:02.319Z,69.35
2023-01-10T05:53:29.018Z,69.83
2023-01-10T05:56:04.578Z,69.13
2023-01-10T05:58:31.108Z,69.63
2023-01-10T06:00:58.425Z,69.36
2023-01-10T06:03:26.505Z,69.26
2023-01-10T06:05:55.545Z,69.10
2023-01-10T06:08:22.948Z,68.92
2023-01-10T06:10:50.122Z,69.56
2023-01-10T06:13:16.715Z,68.93
2023-01-10T06:15:43.829Z,69.33
2023-01-10T06:18:12.282Z,69.40
2023-01-10T06:20:39.970Z,69.01
2023-01-10T06:23:07.005Z,69.22
2023-01-10T06:25:40.128Z,68.74
2023-01-10T06:28:08.312Z,68.33
2023-01-10T06:30:35.295Z,68.30
2023-01-10T06:33:04.548Z,68.71
2023-01-10T06:35:31.693Z,68.93
2023-01-10T06:37:59.255Z,68.77
2023-01-10T06:40:27.351Z,69.02
2023-01-10T06:42:53.940Z,69.24
2023-01-10T06:45:20.729Z,69.48
2023-01-10T06:47:47.210Z,69.57
2023-01-10T06:50:14.309Z,69.42
2023-01-10T06:52:41.844Z,69.28
2023-01-10T06:55:08.841Z,69.65
2023-01-10T06:57:35.576Z,69.73
2023-01-10T07:00:07.701Z,69.66
2023-01-10T07:02:34.216Z,69.62
2023-01-10T07:05:00.822Z,69.45
2023-01-10T07:07:27.311Z,69.51
2023-01-10T07:09:53.812Z,69.55
2023-01-10T07:12:20.305Z,69.58
2023-01-10T07:14:46.755Z,69.29
2023-01-10T07:17:13.258Z,69.17
2023-01-10T07:19:39.751Z,69.62
2023-01-10T07:22:06.200Z,69.75
2023-01-10T07:24:32.715Z,69.73
2023-01-10T07:26:59.176Z,69.06
2023-01-10T07:29:25.668Z,69.75
2023-01-10T07:31:52.128Z,69.48
2023-01-10T07:34:18.874Z,69.62
2023-01-10T07:36:45.405Z,69.30
2023-01-10T07:39:11.954Z,69.36
2023-01-10T07:41:38.442Z,68.82
2023-01-10T07:44:05.757Z,68.84
2023-01-10T07:46:32.330Z,69.30
2023-01-10T07:48:58.917Z,69.16
2023-01-10T07:51:25.444Z,69.44
2023-01-10T07:53:51.979Z,69.53
2023-01-10T07:56:18.459Z,69.43
2023-01-10T07:58:46.292Z,69.54
2023-01-10T08:01:12.812Z,68.96
2023-01-10T08:03:39.550Z,69.43
2023-01-10T08:06:12.385Z,69.08
2023-01-10T08:08:39.430Z,68.87
2023-01-10T08:11:06.190Z,68.64
2023-01-10T08:13:33.116Z,68.38
2023-01-10T08:16:00.324Z,68.42
2023-01-10T08:18:27.790Z,68.52
2023-01-10T08:20:55.468Z,68.41
2023-01-10T08:23:22.297Z,69.00
2023-01-10T08:25:51.080Z,69.28
2023-01-10T08:28:17.731Z,68.60
2023-01-10T08:30:44.824Z,68.89
2023-01-10T08:33:12.337Z,69.00
2023-01-10T08:35:43.444Z,68.80
2023-01-10T08:38:11.668Z,68.92
2023-01-10T08:40:38.816Z,69.50
2023-01-10T08:43:09.850Z,69.59
2023-01-10T08:45:37.547Z,69.11
2023-01-10T08:48:05.950Z,69.21
2023-01-10T08:50:32.989Z,69.42
2023-01-10T08:53:00.950Z,69.16
2023-01-10T08:55:28.795Z,68.88
2023-01-10T08:57:55.269Z,68.90
2023-01-10T09:00:22.572Z,68.56
2023-01-10T09:02:49.196Z,67.81
2023-01-10T09:05:27.076Z,68.20
2023-01-10T09:08:00.557Z,68.10
2023-01-10T09:10:29.055Z,67.83
2023-01-10T09:12:59.525Z,67.52
2023-01-10T09:15:32.325Z,67.47
2023-01-10T09:18:03.392Z,67.31
2023-01-10T09:20:30.252Z,67.71
2023-01-10T09:22:58.376Z,68.53
2023-01-10T09:25:25.432Z,67.83
2023-01-10T09:28:00.351Z,68.14
2023-01-10T09:30:29.228Z,68.24
2023-01-10T09:32:57.777Z,67.97
2023-01-10T09:35:27.132Z,68.21
2023-01-10T09:37:59.057Z,68.10
2023-01-10T09:41:01.885Z,67.50
2023-01-10T09:44:02.385Z,67.80
2023-01-10T09:46:46.561Z,68.10
2023-01-10T09:49:31.382Z,67.33
2023-01-10T09:51:59.203Z,67.32
2023-01-10T09:54:31.687Z,66.92
2023-01-10T09:57:01.473Z,67.26
2023-01-10T09:59:41.564Z,66.76
2023-01-10T10:02:34.775Z,66.83
2023-01-10T10:05:18.009Z,66.99
2023-01-10T10:07:52.090Z,67.08
2023-01-10T10:10:31.598Z,67.39
2023-01-10T10:13:27.403Z,67.64
2023-01-10T10:16:37.389Z,66.83
2023-01-10T10:19:33.327Z,67.32
2023-01-10T10:22:41.406Z,66.80
2023-01-10T10:25:45.672Z,66.17
2023-01-10T10:28:56.897Z,66.37
2023-01-10T10:32:56.092Z,66.49
2023-01-10T10:35:45.363Z,65.65
2023-01-10T10:38:42.466Z,64.77
2023-01-10T10:41:40.353Z,66.12
2023-01-10T10:44:44.899Z,66.10
2023-01-10T10:47:21.139Z,66.38
2023-01-10T10:50:06.913Z,65.97
2023-01-10T10:52:37.257Z,66.24
2023-01-10T10:55:07.050Z,65.78
2023-01-10T10:57:45.651Z,65.24
2023-01-10T11:00:22.819Z,65.70
2023-01-10T11:03:05.396Z,65.06
2023-01-10T11:05:40.955Z,64.68
2023-01-10T11:08:13.978Z,64.99
2023-01-10T11:10:46.980Z,65.19
2023-01-10T11:13:34.704Z,64.80
2023-01-10T11:16:06.280Z,64.71
2023-01-10T11:18:33.761Z,64.47
2023-01-10T11:21:15.741Z,63.38
2023-01-10T11:23:53.337Z,63.74
2023-01-10T11:26:39.200Z,63.81
2023-01-10T11:29:24.692Z,62.71
2023-01-10T11:31:54.599Z,63.74
2023-01-10T11:34:35.071Z,62.64
2023-01-10T11:37:16.476Z,63.51
2023-01-10T11:39:43.438Z,63.99
2023-01-10T11:42:24.942Z,63.01
2023-01-10T11:44:51.460Z,64.09
2023-01-10T11:47:20.736Z,63.52
2023-01-10T11:49:50.121Z,63.57
2023-01-10T11:52:26.808Z,63.29
2023-01-10T11:54:58.480Z,62.11
2023-01-10T11:57:32.192Z,64.07
2023-01-10T12:00:07.213Z,63.31
2023-01-10T12:02:39.797Z,63.46
2023-01-10T12:05:13.093Z,63.25
2023-01-10T12:08:06.064Z,62.54
2023-01-10T12:10:34.878Z,63.35
2023-01-10T12:13:16.800Z,62.63
2023-01-10T12:15:43.380Z,63.27
2023-01-10T12:18:11.944Z,63.41
2023-01-10T12:20:48.657Z,62.99
2023-01-10T12:23:22.035Z,62.83
2023-01-10T12:25:50.049Z,62.89
2023-01-10T12:28:22.593Z,62.39
2023-01-10T12:30:51.846Z,62.82
2023-01-10T12:33:37.315Z,61.78
2023-01-10T12:36:13.987Z,62.05
2023-01-10T12:39:07.122Z,60.87
2023-01-10T12:42:01.487Z,62.90
2023-01-10T12:44:41.928Z,62.85
2023-01-10T12:47:28.512Z,62.89
2023-01-10T12:50:15.024Z,62.29
2023-01-10T12:53:15.975Z,62.62
2023-01-10T12:55:45.935Z,63.13
2023-01-10T12:58:40.229Z,62.51
2023-01-10T13:01:09.688Z,62.78
2023-01-10T13:03:37.198Z,62.62
2023-01-10T13:06:04.265Z,62.63
2023-01-10T13:08:35.951Z,62.73
2023-01-10T13:11:09.828Z,62.51
2023-01-10T13:13:43.268Z,62.07
2023-01-10T13:16:52.462Z,62.41
2023-01-10T13:19:21.348Z,62.90
2023-01-10T13:21:48.415Z,62.79
2023-01-10T13:24:14.768Z,62.31
2023-01-10T13:26:57.578Z,61.64
2023-01-10T13:29:40.651Z,62.54
2023-01-10T13:32:24.902Z,61.29
2023-01-10T13:34:52.540Z,62.78
2023-01-10T13:37:39.037Z,61.51
2023-01-10T13:40:07.309Z,62.36
2023-01-10T13:42:55.141Z,62.54
2023-01-10T13:45:31.423Z,62.50
2023-01-10T13:48:03.980Z,61.72
2023-01-10T13:50:42.359Z,61.70
2023-01-10T13:53:08.806Z,62.05
2023-01-10T13:55:46.144Z,61.49
2023-01-10T13:58:21.095Z,61.56
2023-01-10T14:01:13.195Z,61.66
2023-01-10T14:03:59.367Z,61.61
2023-01-10T14:06:28.639Z,61.58
2023-01-10T14:09:13.375Z,61.40
2023-01-10T14:11:42.882Z,61.96
2023-01-10T14:14:24.367Z,61.74
2023-01-10T14:17:10.345Z,61.64
2023-01-10T14:19:37.751Z,62.17
2023-01-10T14:22:04.535Z,61.83
2023-01-10T14:24:52.751Z,61.14
2023-01-10T14:27:22.759Z,62.10
2023-01-10T14:30:01.341Z,62.36
2023-01-10T14:32:38.281Z,62.32
2023-01-10T14:35:09.826Z,62.50
2023-01-10T14:38:08.300Z,62.72
2023-01-10T14:40:44.977Z,62.51
2023-01-10T14:43:17.845Z,62.85
2023-01-10T14:46:21.765Z,62.68
2023-01-10T14:48:51.985Z,62.93
2023-01-10T14:51:24.419Z,63.03
2023-01-10T14:54:02.938Z,62.50
2023-01-10T14:56:55.790Z,63.02
2023-01-10T14:59:36.074Z,62.68
2023-01-10T15:02:25.080Z,62.55
2023-01-10T15:05:18.275Z,62.43
2023-01-10T15:07:44.807Z,63.35
2023-01-10T15:10:40.849Z,63.11
2023-01-10T15:13:13.146Z,63.05
2023-01-10T15:15:40.823Z,63.25
2023-01-10T15:18:38.378Z,62.89
2023-01-10T15:21:07.227Z,63.59
2023-01-10T15:23:40.126Z,63.57
2023-01-10T15:26:16.217Z,63.84
2023-01-10T15:29:02.793Z,63.58
2023-01-10T15:31:29.691Z,63.51
2023-01-10T15:33:56.499Z,63.46
2023-01-10T15:36:27.776Z,63.49
2023-01-10T15:38:54.900Z,63.15
2023-01-10T15:41:24.252Z,62.71
2023-01-10T15:43:51.956Z,63.03
2023-01-10T15:46:23.134Z,62.93
2023-01-10T15:49:02.814Z,62.94
2023-01-10T15:51:37.251Z,63.68
2023-01-10T15:54:30.844Z,63.22
2023-01-10T15:57:24.821Z,63.80
2023-01-10T15:59:52.019Z,63.71
2023-01-10T16:02:29.636Z,63.35
2023-01-10T16:05:07.314Z,63.73
2023-01-10T16:07:42.056Z,63.68
2023-01-10T16:10:25.555Z,64.16
2023-01-10T16:13:10.674Z,64.23
2023-01-10T16:15:44.304Z,63.96
2023-01-10T16:18:10.755Z,64.00
2023-01-10T16:20:45.976Z,64.22
2023-01-10T16:23:36.073Z,64.26
2023-01-10T16:26:09.098Z,64.13
2023-01-10T16:28:37.292Z,64.08
2023-01-10T16:31:06.907Z,64.09
2023-01-10T16:33:33.640Z,64.07
2023-01-10T16:36:00.696Z,64.03
2023-01-10T16:38:29.154Z,63.94
2023-01-10T16:41:21.744Z,64.48
2023-01-10T16:43:51.923Z,64.50
2023-01-10T16:46:18.479Z,64.63
2023-01-10T16:48:49.898Z,64.04
2023-01-10T16:51:21.486Z,64.14
2023-01-10T16:53:48.457Z,63.53
2023-01-10T16:56:22.964Z,63.94
2023-01-10T16:58:51.657Z,63.99
2023-01-10T17:01:24.125Z,64.40
2023-01-10T17:03:51.490Z,64.59
2023-01-10T17:06:18.034Z,63.81
2023-01-10T17:08:45.004Z,63.36
2023-01-10T17:11:20.476Z,63.38
2023-01-10T17:13:47.641Z,63.36
2023-01-10T17:16:19.264Z,63.81
2023-01-10T17:18:46.533Z,63.67
2023-01-10T17:21:19.587Z,63.67
2023-01-10T17:23:46.986Z,63.78
2023-01-10T17:26:17.506Z,63.99
2023-01-10T17:28:49.379Z,63.66
2023-01-10T17:31:19.488Z,63.26
2023-01-10T17:33:46.135Z,63.90
2023-01-10T17:36:12.640Z,64.05
2023-01-10T17:38:39.180Z,63.88
2023-01-10T17:41:07.232Z,64.68
2023-01-10T17:43:33.701Z,64.24
2023-01-10T17:46:05.721Z,64.92
2023-01-10T17:48:34.585Z,65.22
2023-01-10T17:51:02.932Z,65.53
2023-01-10T17:53:30.301Z,65.92
2023-01-10T17:55:58.275Z,66.02
2023-01-10T17:58:24.924Z,66.77
2023-01-10T18:00:51.487Z,66.37
2023-01-10T18:03:18.061Z,65.88
2023-01-10T18:05:56.454Z,65.64
2023-01-10T18:08:24.706Z,66.78
2023-01-10T18:10:51.764Z,67.20
2023-01-10T18:13:23.016Z,67.05
2023-01-10T18:15:49.837Z,66.49
2023-01-10T18:18:16.877Z,67.10
2023-01-10T18:20:44.886Z,67.77
2023-01-10T18:23:21.675Z,67.60
2023-01-10T18:26:08.107Z,67.86
2023-01-10T18:28:42.919Z,68.26
2023-01-10T18:31:17.106Z,68.52
2023-01-10T18:33:46.157Z,68.06
2023-01-10T18:36:16.634Z,68.37
2023-01-10T18:38:44.436Z,68.49
2023-01-10T18:41:12.306Z,68.43
2023-01-10T18:43:39.215Z,68.72
2023-01-10T18:46:11.506Z,68.40
2023-01-10T18:48:38.424Z,67.81
2023-01-10T18:51:06.383Z,68.33
2023-01-10T18:53:33.232Z,68.35
2023-01-10T18:56:06.842Z,68.17
2023-01-10T18:58:39.668Z,67.79
2023-01-10T19:01:13.792Z,68.34
2023-01-10T19:03:40.755Z,68.58
2023-01-10T19:06:14.317Z,68.25
2023-01-10T19:08:41.250Z,67.94
2023-01-10T19:11:14.345Z,68.55
2023-01-10T19:13:42.938Z,68.17
2023-01-10T19:16:17.106Z,68.56
2023-01-10T19:18:50.719Z,68.94
2023-01-10T19:21:17.373Z,69.35
2023-01-10T19:23:46.572Z,69.52
2023-01-10T19:26:14.776Z,68.93
2023-01-10T19:28:43.667Z,69.29
2023-01-10T19:31:27.668Z,69.33
2023-01-10T19:33:57.699Z,69.01
2023-01-10T19:36:24.359Z,69.02
2023-01-10T19:38:58.874Z,69.07
2023-01-10T19:41:28.474Z,69.21
2023-01-10T19:43:57.108Z,69.70
2023-01-10T19:46:24.593Z,69.55
2023-01-10T19:48:51.293Z,69.18
2023-01-10T19:51:17.779Z,69.40
2023-01-10T19:53:46.287Z,69.07
2023-01-10T19:56:22.837Z,69.37
2023-01-10T19:58:50.569Z,69.36
2023-01-10T20:01:24.561Z,68.32
2023-01-10T20:03:51.851Z,68.43
2023-01-10T20:06:24.399Z,68.47
2023-01-10T20:08:51.421Z,68.79
2023-01-10T20:11:18.242Z,68.97
2023-01-10T20:13:45.291Z,68.95
2023-01-10T20:16:13.896Z,69.11
2023-01-10T20:18:41.351Z,69.23
2023-01-10T20:21:11.073Z,68.85
2023-01-10T20:23:39.671Z,69.10
2023-01-10T20:26:15.588Z,69.31
2023-01-10T20:28:44.260Z,69.46
2023-01-10T20:31:21.840Z,69.83
2023-01-10T20:33:49.447Z,69.76
2023-01-10T20:36:21.305Z,69.75
2023-01-10T20:38:48.877Z,70.06
2023-01-10T20:41:26.274Z,70.15
2023-01-10T20:43:55.464Z,69.97
2023-01-10T20:46:26.647Z,70.12
2023-01-10T20:48:55.798Z,69.47
2023-01-10T20:51:31.523Z,69.85
2023-01-10T20:53:59.453Z,69.66
2023-01-10T20:56:30.646Z,69.94
2023-01-10T20:58:57.824Z,70.12
2023-01-10T21:01:34.246Z,70.56
2023-01-10T21:04:03.960Z,70.95
2023-01-10T21:06:32.127Z,71.08
2023-01-10T21:08:58.981Z,71.58
2023-01-10T21:11:25.521Z,71.27
2023-01-10T21:13:52.473Z,70.87
2023-01-10T21:16:20.754Z,70.60
2023-01-10T21:18:47.971Z,70.37
2023-01-10T21:21:18.560Z,70.55
2023-01-10T21:23:45.099Z,70.66
2023-01-10T21:26:14.773Z,70.37
2023-01-10T21:28:47.167Z,70.55
2023-01-10T21:31:20.522Z,70.79
2023-01-10T21:33:49.068Z,70.30
2023-01-10T21:36:16.589Z,70.83
2023-01-10T21:38:43.687Z,70.90
2023-01-10T21:41:36.148Z,70.68
2023-01-10T21:44:04.701Z,70.54
2023-01-10T21:46:31.823Z,70.92
2023-01-10T21:48:58.302Z,71.41
2023-01-10T21:51:24.813Z,70.99
2023-01-10T21:53:51.399Z,71.01
2023-01-10T21:56:17.895Z,71.17
2023-01-10T21:58:44.483Z,71.76
2023-01-10T22:01:10.998Z,71.81
2023-01-10T22:03:37.545Z,71.46
2023-01-10T22:06:04.328Z,71.71
2023-01-10T22:08:30.832Z,71.82
2023-01-10T22:10:57.352Z,71.80
2023-01-10T22:13:26.994Z,71.39
2023-01-10T22:16:00.487Z,71.17
2023-01-10T22:18:28.663Z,71.52
2023-01-10T22:20:55.887Z,71.48
2023-01-10T22:23:24.304Z,71.28
2023-01-10T22:26:20.069Z,71.64
2023-01-10T22:28:46.577Z,71.22
2023-01-10T22:31:13.137Z,71.39
2023-01-10T22:33:39.687Z,71.81
2023-01-10T22:36:24.424Z,71.66
2023-01-10T22:38:50.946Z,71.59
2023-01-10T22:41:26.437Z,71.16
2023-01-10T22:43:53.888Z,71.44
2023-01-10T22:46:21.010Z,71.98
2023-01-10T22:48:47.731Z,71.96
2023-01-10T22:51:17.302Z,71.42
2023-01-10T22:53:50.307Z,71.59
2023-01-10T22:56:17.172Z,71.30
2023-01-10T22:58:48.185Z,71.53
2023-01-10T23:01:21.362Z,72.09
2023-01-10T23:03:48.522Z,71.83
2023-01-10T23:06:16.324Z,72.13
2023-01-10T23:08:44.140Z,72.16
2023-01-10T23:11:16.102Z,72.02
2023-01-10T23:13:42.996Z,72.40
2023-01-10T23:16:15.290Z,72.10
2023-01-10T23:18:42.416Z,72.19
2023-01-10T23:21:09.830Z,71.72
2023-01-10T23:23:36.647Z,71.76
2023-01-10T23:26:07.483Z,71.98
2023-01-10T23:28:42.477Z,71.60
2023-01-10T23:31:09.051Z,71.45
2023-01-10T23:33:35.765Z,72.04
2023-01-10T23:36:03.760Z,72.06
2023-01-10T23:38:31.127Z,72.23
2023-01-10T23:40:58.433Z,72.06
2023-01-10T23:43:25.313Z,71.81
2023-01-10T23:45:51.823Z,72.08
2023-01-10T23:48:18.720Z,72.26
2023-01-10T23:50:48.696Z,72.33
2023-01-10T23:53:15.725Z,71.84
2023-01-10T23:55:42.519Z,72.19
2023-01-10T23:58:09.078Z,72.13
